Aberdeen, New Jersey
Current Conditions -  °F | °C
As of 8:15 PM on Friday 28 Nov 2014 (Local Time) from KLDJ Reporting Station
Clear Clear  
Wind Chill: 32°   Ceiling: Unl
Heat Index: 32°   Visibility: 10mi
Dew Point: 17°   Wind: 3mph
Humidity: 55%   Direction: 330°NNW
Pressure: 30.29"   Gusts: NA
Location:  40.4118°N, 74.2499°W
Report Text: KLDJ 290115Z AUTO 33003KT 10SM CLR 00/M08 A3029 RMK AO2 T00001082
Loading
Personal Weather Stations






























Interactive Weather Map New forecast layout! Learn more

10-Day Weather Forecast

Advertisements
Track Severe Weather on mobile